Terminal Aerodrome Forecast
Issued by NWS Sioux Falls, SD

Home | Current Version | Previous Version | Text Only | Print | Product List | Glossary On
Versions: 1 2 3 4 5 6 7 8 9 10 11 12 13 14 15 16 17 18 19 20 21 22 23 24 25 26 27 28 29
000
FTUS43 KFSD 160537
TAFSUX
TAF
KSUX 160537Z 1606/1706 33018G26KT P6SM BKN015
     FM160700 33015G22KT P6SM SKC
     FM161000 32010KT P6SM SKC
     FM161200 29004KT P6SM SKC
     FM161700 22007KT P6SM SKC
     FM162000 18010KT P6SM SKC
     FM170300 17010KT P6SM SKC WS015/21040KT=

USA.gov is the U.S. government's official web portal to all federal, state and local government web resources and services.